View Sortable Currents For Network
ASOSCoCoRaHSCOOPDCPISU Soil MoistureOther
SCANMy FavoritesBy StateRWISRWIS SurfaceRWIS Traffic
RWIS SoilBy NWS WFOUSCRN

Current SCAN Conditions

Sorted by: (Station ID)     Click on a column to sort it.
ADD: Station: Ob Time Temps °F   Wind [knots]  
Air (Hi / Lo) DewP Feels RH% Speed Direction Gust @Time Solar Rad
Rodgers Farm11:00 AM 88(88/72) 60 0 38 000
Crescent Lake No111:00 AM 85(85/72) 66 0 52 000
Mason11:00 AM 119(119/91) 122 0 106 000
Ames11:00 AM 85(85/69) 59 0 42 000
Spickard11:00 AM 84(84/67) 59 0 44 000
Dexter11:00 AM 89(89/67) 62 0 41 000
Mt Vernon11:00 AM 85(85/58) 53 0 34 000
Powell Gardens11:00 AM 86(86/62) 58 0 38 000
SHAGBARK HILLS11:00 AM 80(80/76) 58 0 48 000
Schell-Osage11:00 AM 86(86/63) 60 0 42 000
Journagan Ranch11:00 AM 85(85/49) 60 0 43 000
CMRB LTAR11:00 AM 85(85/65) 57 0 38 000
Platteville11:00 AM 85(85/69) 66 0 54 000
Elsberry PMC11:00 AM 87(87/64) 55 0 33 000
Carver Farm11:00 AM 86(86/60) 55 0 35 000
Busby Farm11:00 AM 86(86/58) 58 0 39 000
Mark Twain HS11:00 AM 87(87/64) 58 0 38 000
Twin Pines Conservation11:00 AM 89(89/51) 61 0 39 000
Shaw Nature Reserve11:00 AM 87(87/57) 56 0 35 000


SCAN Soil Conditions

  2 inch 4 inch 8 inch 20 inch 40 inch
Station: Ob Time: Moist:Temp: Moist:Temp: Moist:Temp: Moist:Temp: Moist:Temp:
Rodgers Farm11:00 AM 360 410 490 -1000 520
Crescent Lake No111:00 AM 90 110 140 70 60
Mason11:00 AM 80 80 80 120 260
Ames11:00 AM 120 240 280 550 400
Spickard11:00 AM 190 360 300 410 520
Dexter11:00 AM 170 190 220 280 300
Mt Vernon11:00 AM -1000 90 150 140 00
Powell Gardens11:00 AM 150 460 520 460 400
SHAGBARK HILLS11:00 AM 190 180 250 260 380
Schell-Osage11:00 AM 280 360 260 -1000 -1000
Journagan Ranch11:00 AM 20 100 90 320 260
CMRB LTAR11:00 AM 230 210 210 340 530
Platteville11:00 AM 150 180 220 250 440
Elsberry PMC11:00 AM 170 180 220 300 490
Carver Farm11:00 AM 110 130 100 240 200
Busby Farm11:00 AM 230 210 230 350 370
Mark Twain HS11:00 AM 140 150 160 410 530
Twin Pines Conservation11:00 AM 70 80 140 160 190
Shaw Nature Reserve11:00 AM -1000 -1000 -1000 -1000 -1000